Menu Close Menu
Station Historical Data
Daily Summary for June 18, 2017 Units:  Metric    English   Both
« Previous Day
Next Day »
Daily Weekly Monthly Yearly Custom
  High: Low: Average:
Temperature: 29.2 °C 21.8 °C 24.1 °C
Dew Point: 23.2 °C 19.8 °C 21.1 °C
Humidity: 90% 61% 83%
Wind Speed: 1.6km/h 0km/h 0km/h
Wind Gust: 9.7km/h - -
Wind- - NW
Pressure: 1014.4 hPa 1010.4 hPa -
Precipitation: 1.52 mm    
Historical Graphs
 
 
Tabular Data for June 18, 2017
Time Temperature Dew Point Pressure Wind Wind Speed Wind Gust Humidity Rainfall Rate (Hourly) solar Conditions
00:00 22.9 °C 20.4 °C 1011.4 hPa Calm     86% 0 mm WeatherDisplay:10.37 W/m2 CLR
00:10 22.8 °C 20.5 °C 1011.4 hPa Calm     87% 0 mm WeatherDisplay:10.37 W/m2 CLR
00:20 22.7 °C 20.4 °C 1011.4 hPa Calm     87% 0 mm WeatherDisplay:10.37 W/m2 CLR
00:30 22.6 °C 20.3 °C 1011.4 hPa Calm     87% 0 mm WeatherDisplay:10.37 W/m2 CLR
00:40 22.5 °C 20.4 °C 1011.4 hPa Calm     88% 0 mm WeatherDisplay:10.37 W/m2 CLR
00:50 22.4 °C 20.3 °C 1011.1 hPa Calm     88% 0 mm WeatherDisplay:10.37 W/m2 CLR
01:00 22.3 °C 20.4 °C 1011.1 hPa Calm     89% 0 mm WeatherDisplay:10.37 W/m2 CLR
01:10 22.2 °C 20.3 °C 1011.1 hPa Calm     89% 0 mm WeatherDisplay:10.37 W/m2 CLR
01:20 22.2 °C 20.3 °C 1010.7 hPa Calm     89% 0 mm WeatherDisplay:10.37 W/m2 CLR
01:30 22.2 °C 20.3 °C 1010.7 hPa Calm     89% 0 mm WeatherDisplay:10.37 W/m2 CLR
01:40 22.1 °C 20.2 °C 1010.4 hPa Calm     89% 0 mm WeatherDisplay:10.37 W/m2 CLR
01:50 22.1 °C 20.4 °C 1010.4 hPa Calm     90% 0 mm WeatherDisplay:10.37 W/m2 CLR
02:00 22.1 °C 20.3 °C 1010.4 hPa Calm     90% 0 mm WeatherDisplay:10.37 W/m2 CLR
02:20 22.1 °C 20.2 °C 1010.4 hPa Calm     89% 0 mm WeatherDisplay:10.37 W/m2 CLR
02:30 22 °C 20.1 °C 1010.4 hPa Calm     89% 0 mm WeatherDisplay:10.37 W/m2 CLR
02:40 22 °C 20.1 °C 1010.4 hPa Calm     89% 0 mm WeatherDisplay:10.37 W/m2 CLR
02:50 22 °C 20.1 °C 1010.4 hPa Calm     89% 0 mm WeatherDisplay:10.37 W/m2 CLR
03:00 22 °C 20.1 °C 1010.4 hPa Calm     89% 0 mm WeatherDisplay:10.37 W/m2 CLR
03:10 22 °C 20.1 °C 1010.7 hPa Calm     89% 0 mm WeatherDisplay:10.37 W/m2 CLR
03:20 22 °C 20.1 °C 1010.7 hPa Calm     89% 0 mm WeatherDisplay:10.37 W/m2 CLR
03:30 22 °C 20.1 °C 1011.1 hPa Calm     89% 0 mm WeatherDisplay:10.37 W/m2 CLR
03:40 22 °C 20.1 °C 1011.1 hPa Calm     89% 0 mm WeatherDisplay:10.37 W/m2 CLR
04:00 22 °C 20.1 °C 1011.4 hPa Calm     89% 0 mm WeatherDisplay:10.37 W/m2 CLR
04:10 22 °C 20.1 °C 1011.7 hPa Calm     89% 0 mm WeatherDisplay:10.37 W/m2 CLR
04:20 22 °C 20.1 °C 1012.1 hPa Calm     89% 0 mm WeatherDisplay:10.37 W/m2 CLR
04:30 22 °C 20.1 °C 1012.1 hPa Calm     89% 0 mm WeatherDisplay:10.37 W/m2 CLR
04:40 22 °C 20.1 °C 1012.4 hPa Calm     89% 0 mm WeatherDisplay:10.37 W/m2 CLR
04:50 22 °C 20.1 °C 1012.8 hPa Calm     89% 0 mm WeatherDisplay:10.37 W/m2 CLR
05:00 22 °C 20.1 °C 1012.8 hPa Calm     89% 0 mm WeatherDisplay:10.37 W/m2 CLR
05:10 22 °C 20.1 °C 1013.1 hPa Calm     89% 0 mm WeatherDisplay:10.37 W/m2 CLR
05:20 22 °C 20.1 °C 1013.4 hPa Calm     89% 0 mm WeatherDisplay:10.37 W/m2 CLR
05:30 22 °C 20.1 °C 1013.4 hPa Calm     89% 0 mm WeatherDisplay:10.37 W/m2 CLR
05:40 22 °C 20.1 °C 1013.4 hPa Calm     89% 0 mm WeatherDisplay:10.37 W/m2 CLR
05:50 22 °C 20.1 °C 1013.4 hPa Calm     89% 0 mm WeatherDisplay:10.37 W/m2 CLR
06:00 22 °C 20.1 °C 1013.8 hPa Calm     89% 0 mm WeatherDisplay:10.37 W/m2 CLR
06:10 22 °C 20.1 °C 1013.8 hPa Calm     89% 0 mm WeatherDisplay:10.37 W/m2 CLR
06:20 22 °C 20.1 °C 1013.8 hPa Calm     89% 0 mm WeatherDisplay:10.37 W/m2 CLR
06:30 22 °C 20.1 °C 1013.8 hPa Calm     89% 0 mm WeatherDisplay:10.37 W/m2 CLR
06:40 22 °C 20.1 °C 1013.8 hPa Calm     89% 0 mm WeatherDisplay:10.37 W/m2 CLR
06:50 22 °C 20.1 °C 1013.8 hPa Calm     89% 0 mm WeatherDisplay:10.37 W/m2 CLR
07:00 22 °C 20.1 °C 1014.1 hPa Calm     89% 0 mm WeatherDisplay:10.37 W/m2 CLR
07:10 22 °C 20.1 °C 1013.8 hPa Calm     89% 0 mm WeatherDisplay:10.37 W/m2 CLR
07:20 22 °C 20.1 °C 1014.1 hPa Calm     89% 0 mm WeatherDisplay:10.37 W/m2 CLR
07:30 22 °C 20.1 °C 1013.8 hPa Calm     89% 0 mm WeatherDisplay:10.37 W/m2 CLR
07:40 22 °C 20.1 °C 1013.8 hPa Calm     89% 0 mm WeatherDisplay:10.37 W/m2 CLR
07:50 21.8 °C 19.9 °C 1013.4 hPa Calm     89% 0 mm WeatherDisplay:10.37 W/m2 CLR
08:00 22.1 °C 20 °C 1013.4 hPa Calm     88% 0 mm WeatherDisplay:10.37 W/m2 CLR
08:10 22.3 °C 19.8 °C 1013.1 hPa Calm   1.6 km/h 86% 0 mm WeatherDisplay:10.37 W/m2 CLR
08:20 22.5 °C 20.1 °C 1013.4 hPa Calm   1.6 km/h 86% 0 mm WeatherDisplay:10.37 W/m2 CLR
08:30 22.7 °C 20.1 °C 1013.4 hPa Calm     85% 0 mm WeatherDisplay:10.37 W/m2 CLR
08:40 22.9 °C 20.3 °C 1013.4 hPa Calm     85% 0 mm WeatherDisplay:10.37 W/m2 CLR
08:50 23.2 °C 20.4 °C 1013.4 hPa Calm     84% 0 mm WeatherDisplay:10.37 W/m2 CLR
09:00 23.4 °C 20.2 °C 1013.4 hPa Calm   1.6 km/h 82% 0 mm WeatherDisplay:10.37 W/m2 CLR
09:10 23.7 °C 20 °C 1013.8 hPa Calm   1.6 km/h 80% 0 mm WeatherDisplay:10.37 W/m2 CLR
09:20 23.9 °C 20.3 °C 1013.8 hPa Calm   1.6 km/h 80% 0 mm WeatherDisplay:10.37 W/m2 CLR
09:30 24.3 °C 20.4 °C 1014.1 hPa Calm   1.6 km/h 79% 0 mm WeatherDisplay:10.37 W/m2 CLR
09:40 24.4 °C 20.5 °C 1014.1 hPa Calm   1.6 km/h 79% 0 mm WeatherDisplay:10.37 W/m2 CLR
09:50 24.7 °C 20.8 °C 1014.1 hPa Calm   1.6 km/h 79% 0 mm WeatherDisplay:10.37 W/m2 CLR
10:10 24.7 °C 20.4 °C 1014.4 hPa Calm   1.6 km/h 77% 0 mm WeatherDisplay:10.37 W/m2 CLR
10:20 25.3 °C 21.1 °C 1014.4 hPa Calm     77% 0 mm WeatherDisplay:10.37 W/m2 CLR
10:30 25.6 °C 20.8 °C 1014.4 hPa Calm     75% 0 mm WeatherDisplay:10.37 W/m2 CLR
10:40 25.7 °C 20.7 °C 1014.4 hPa Calm   1.6 km/h 74% 0 mm WeatherDisplay:10.37 W/m2 CLR
10:50 26.2 °C 21 °C 1014.4 hPa Calm   1.6 km/h 73% 0 mm WeatherDisplay:10.37 W/m2 CLR
11:00 26.2 °C 20.5 °C 1014.1 hPa Calm   3.2 km/h 71% 0 mm WeatherDisplay:10.37 W/m2 CLR
11:10 26.4 °C 20.7 °C 1014.1 hPa Calm   3.2 km/h 71% 0 mm WeatherDisplay:10.37 W/m2 CLR
11:20 26.2 °C 21 °C 1014.1 hPa Calm     73% 0 mm WeatherDisplay:10.37 W/m2 CLR
11:30 26.2 °C 20.8 °C 1014.1 hPa Calm     72% 0 mm WeatherDisplay:10.37 W/m2 CLR
11:40 26.1 °C 20.9 °C 1014.1 hPa Calm   1.6 km/h 73% 0 mm WeatherDisplay:10.37 W/m2 CLR
11:50 26.2 °C 21 °C 1014.1 hPa Calm   1.6 km/h 73% 0 mm WeatherDisplay:10.37 W/m2 CLR
12:00 26.3 °C 20.6 °C 1013.8 hPa Calm     71% 0 mm WeatherDisplay:10.37 W/m2 CLR
12:10 26.5 °C 21.1 °C 1013.8 hPa Calm     72% 0 mm WeatherDisplay:10.37 W/m2 CLR
12:20 26.7 °C 21.2 °C 1013.4 hPa Calm   1.6 km/h 72% 0 mm WeatherDisplay:10.37 W/m2 CLR
12:30 27.2 °C 21 °C 1013.1 hPa Calm   1.6 km/h 69% 0 mm WeatherDisplay:10.37 W/m2 CLR
12:40 27.7 °C 21.2 °C 1013.1 hPa Calm   1.6 km/h 68% 0 mm WeatherDisplay:10.37 W/m2 CLR
12:50 27.6 °C 21.8 °C 1013.1 hPa Calm   3.2 km/h 71% 0 mm WeatherDisplay:10.37 W/m2 CLR
13:00 28.1 °C 21.2 °C 1013.1 hPa NW 1.6 km/h 3.2 km/h 66% 0 mm WeatherDisplay:10.37 W/m2 CLR
13:10 28.3 °C 21.8 °C 1013.1 hPa Calm   3.2 km/h 68% 0 mm WeatherDisplay:10.37 W/m2 CLR
13:20 29.2 °C 20.9 °C 1013.4 hPa Calm   1.6 km/h 61% 0 mm WeatherDisplay:10.37 W/m2 CLR
13:30 28.7 °C 21.2 °C 1013.4 hPa Calm   3.2 km/h 64% 0 mm WeatherDisplay:10.37 W/m2 CLR
13:40 28.1 °C 21.4 °C 1013.4 hPa Calm     67% 0 mm WeatherDisplay:10.37 W/m2 CLR
13:50 27.9 °C 21.5 °C 1013.4 hPa Calm     68% 0 mm WeatherDisplay:10.37 W/m2 CLR
14:00 28 °C 21.6 °C 1013.4 hPa Calm     68% 0 mm WeatherDisplay:10.37 W/m2 CLR
14:10 27.4 °C 21.5 °C 1013.1 hPa Calm   9.7 km/h 70% 0 mm WeatherDisplay:10.37 W/m2 CLR
14:20 26.9 °C 21.9 °C 1013.1 hPa Calm   8 km/h 74% 0 mm WeatherDisplay:10.37 W/m2 CLR
14:30 26.6 °C 20.9 °C 1013.1 hPa Calm   4.8 km/h 71% 0 mm WeatherDisplay:10.37 W/m2 CLR
14:50 25.3 °C 22.4 °C 1012.4 hPa Calm   1.6 km/h 84% 0 mm WeatherDisplay:10.37 W/m2 CLR
15:00 25.1 °C 22.2 °C 1012.4 hPa Calm     84% 0 mm WeatherDisplay:10.37 W/m2 CLR
15:20 25.7 °C 22.4 °C 1012.4 hPa Calm     82% 0 mm WeatherDisplay:10.37 W/m2 CLR
15:30 25.9 °C 22.4 °C 1012.4 hPa Calm   1.6 km/h 81% 0 mm WeatherDisplay:10.37 W/m2 CLR
15:40 25.8 °C 22.4 °C 1012.4 hPa Calm   1.6 km/h 82% 0 mm WeatherDisplay:10.37 W/m2 CLR
15:50 25.6 °C 22.1 °C 1012.4 hPa Calm     81% 0 mm WeatherDisplay:10.37 W/m2 CLR
16:00 25.7 °C 22.4 °C 1012.4 hPa Calm   1.6 km/h 82% 0 mm WeatherDisplay:10.37 W/m2 CLR
16:10 25.7 °C 21.9 °C 1012.1 hPa Calm   1.6 km/h 80% 0 mm WeatherDisplay:10.37 W/m2 CLR
16:20 26.1 °C 22.4 °C 1012.1 hPa Calm     80% 0 mm WeatherDisplay:10.37 W/m2 CLR
16:30 26.5 °C 22.1 °C 1012.1 hPa Calm     77% 0 mm WeatherDisplay:10.37 W/m2 CLR
16:40 26.8 °C 22.4 °C 1012.1 hPa Calm   3.2 km/h 77% 0 mm WeatherDisplay:10.37 W/m2 CLR
16:50 26.7 °C 22.2 °C 1012.1 hPa Calm   1.6 km/h 76% 0 mm WeatherDisplay:10.37 W/m2 CLR
17:00 26.6 °C 22.2 °C 1012.1 hPa Calm   3.2 km/h 77% 0 mm WeatherDisplay:10.37 W/m2 CLR
17:10 26.9 °C 22.8 °C 1012.1 hPa Calm   1.6 km/h 78% 0 mm WeatherDisplay:10.37 W/m2 CLR
17:20 26.2 °C 22.7 °C 1012.1 hPa Calm   1.6 km/h 81% 1.02 mm WeatherDisplay:10.37 W/m2 RA
17:30 25.7 °C 23.2 °C 1012.1 hPa Calm     86% 0 mm WeatherDisplay:10.37 W/m2 CLR
17:40 25.5 °C 23 °C 1012.1 hPa Calm     86% 0 mm WeatherDisplay:10.37 W/m2 CLR
17:50 25.3 °C 22.6 °C 1012.1 hPa Calm     85% 0 mm WeatherDisplay:10.37 W/m2 CLR
18:00 25.2 °C 22.5 °C 1012.1 hPa Calm     85% 0 mm WeatherDisplay:10.37 W/m2 CLR
18:10 25.1 °C 22.2 °C 1012.1 hPa Calm     84% 0 mm WeatherDisplay:10.37 W/m2 CLR
18:20 24.9 °C 22.2 °C 1012.1 hPa Calm     85% 0 mm WeatherDisplay:10.37 W/m2 CLR
18:30 24.7 °C 22.2 °C 1011.7 hPa Calm     86% 0 mm WeatherDisplay:10.37 W/m2 CLR
18:40 24.5 °C 22.2 °C 1011.7 hPa Calm     87% 0 mm WeatherDisplay:10.37 W/m2 CLR
18:50 24.7 °C 22.7 °C 1011.7 hPa Calm     89% 0 mm WeatherDisplay:10.37 W/m2 CLR
19:00 24.7 °C 22.4 °C 1011.7 hPa Calm     87% 0 mm WeatherDisplay:10.37 W/m2 CLR
19:10 24.8 °C 22.4 °C 1011.7 hPa Calm     87% 0 mm WeatherDisplay:10.37 W/m2 CLR
19:20 24.8 °C 22.3 °C 1011.7 hPa Calm     86% 0 mm WeatherDisplay:10.37 W/m2 CLR
19:30 24.9 °C 22.4 °C 1011.7 hPa Calm     86% 0 mm WeatherDisplay:10.37 W/m2 CLR
19:40 24.7 °C 21.8 °C 1011.7 hPa Calm     84% 0 mm WeatherDisplay:10.37 W/m2 CLR
19:50 24.4 °C 21.4 °C 1011.7 hPa Calm     83% 0 mm WeatherDisplay:10.37 W/m2 CLR
20:00 24.3 °C 21.4 °C 1012.1 hPa Calm     84% 0 mm WeatherDisplay:10.37 W/m2 CLR
20:10 24.1 °C 21.4 °C 1012.4 hPa Calm     85% 0 mm WeatherDisplay:10.37 W/m2 CLR
20:20 23.9 °C 21.4 °C 1012.8 hPa Calm     86% 0 mm WeatherDisplay:10.37 W/m2 CLR
20:30 23.7 °C 21.4 °C 1013.1 hPa Calm     87% 0 mm WeatherDisplay:10.37 W/m2 CLR
20:40 23.6 °C 21.3 °C 1013.1 hPa Calm     87% 0 mm WeatherDisplay:10.37 W/m2 CLR
20:50 23.6 °C 21.4 °C 1013.1 hPa Calm     88% 0 mm WeatherDisplay:10.37 W/m2 CLR
21:00 23.5 °C 21.4 °C 1013.1 hPa Calm     88% 0 mm WeatherDisplay:10.37 W/m2 CLR
21:10 23.4 °C 21.3 °C 1013.4 hPa Calm     88% 0 mm WeatherDisplay:10.37 W/m2 CLR
21:20 23.4 °C 21.5 °C 1013.4 hPa Calm     89% 0 mm WeatherDisplay:10.37 W/m2 CLR
21:30 23.4 °C 21.4 °C 1013.8 hPa Calm     89% 0 mm WeatherDisplay:10.37 W/m2 CLR
21:40 23.3 °C 21.4 °C 1013.8 hPa Calm     89% 0 mm WeatherDisplay:10.37 W/m2 CLR
21:50 23.3 °C 21.3 °C 1013.8 hPa Calm     89% 0 mm WeatherDisplay:10.37 W/m2 CLR
22:00 23.3 °C 21.3 °C 1014.1 hPa Calm     89% 0 mm WeatherDisplay:10.37 W/m2 CLR
22:10 23.2 °C 21.3 °C 1014.1 hPa Calm     89% 0 mm WeatherDisplay:10.37 W/m2 CLR
22:20 23.2 °C 21.3 °C 1014.1 hPa Calm     89% 0 mm WeatherDisplay:10.37 W/m2 CLR
22:30 23.2 °C 21.3 °C 1014.1 hPa Calm     89% 0 mm WeatherDisplay:10.37 W/m2 CLR
22:40 23.3 °C 21.3 °C 1014.1 hPa Calm     89% 0 mm WeatherDisplay:10.37 W/m2 CLR
22:50 23.2 °C 21.3 °C 1014.1 hPa Calm     89% 0 mm WeatherDisplay:10.37 W/m2 CLR
23:00 23.2 °C 21.3 °C 1014.1 hPa Calm     89% 0 mm WeatherDisplay:10.37 W/m2 CLR
23:20 23.2 °C 21.4 °C 1014.1 hPa Calm     90% 0 mm WeatherDisplay:10.37 W/m2 CLR
23:30 23.2 °C 21.4 °C 1014.1 hPa Calm     90% 0 mm WeatherDisplay:10.37 W/m2 CLR
23:40 23.2 °C 21.4 °C 1014.1 hPa Calm     90% 0 mm WeatherDisplay:10.37 W/m2 CLR
23:50 23.2 °C 21.5 °C 1014.1 hPa Calm     90% 0 mm WeatherDisplay:10.37 W/m2 CLR
Piedmont Bend
Compliments of Weather Underground - 4 mb